Time;durP1;ratioP1;P1;durP2;ratioP2;P2;SDS_P1;SDS_P2;PMS_P1;PMS_P2;Temp;Humidity;BMP_temperature;BMP_pressure;BME280_temperature;BME280_humidity;BME280_pressure;Samples;Min_cycle;Max_cycle;Signal;HPM_P1;HPM_P2
2022/10/31 00:04:35;;;;;;;4.18;2.72;;;;;;;11.40;95.96;100091.19;10425694;28;20034;-70
2022/10/31 00:09:35;;;;;;;4.38;2.63;;;;;;;11.87;95.79;100152.13;10414091;28;20056;-70
2022/10/31 00:14:36;;;;;;;4.82;2.67;;;;;;;11.96;95.50;100158.19;10414377;28;20041;-69
2022/10/31 00:19:37;;;;;;;4.47;2.50;;;;;;;12.05;95.22;100150.94;10413702;28;20037;-70
2022/10/31 00:24:38;;;;;;;2.83;1.85;;;;;;;12.13;94.86;100145.53;10414138;28;20405;-70
2022/10/31 00:29:38;;;;;;;4.35;1.95;;;;;;;12.17;94.44;100154.81;10414426;28;20484;-70
2022/10/31 00:34:39;;;;;;;3.03;1.83;;;;;;;11.74;93.57;100064.06;10414319;28;20053;-70
2022/10/31 00:39:40;;;;;;;4.40;1.88;;;;;;;12.21;93.72;100134.81;10413221;28;20124;-70
2022/10/31 00:44:41;;;;;;;2.80;1.65;;;;;;;11.45;93.61;100000.19;10413066;28;20040;-68
2022/10/31 00:49:42;;;;;;;2.58;1.63;;;;;;;12.31;92.86;100127.34;10414013;28;20135;-69
2022/10/31 00:54:42;;;;;;;2.88;1.58;;;;;;;11.68;91.95;100016.09;10413798;28;20067;-69
2022/10/31 00:59:43;;;;;;;2.20;1.20;;;;;;;12.36;91.59;100110.00;10412015;28;20045;-69
2022/10/31 01:04:44;;;;;;;4.70;1.67;;;;;;;12.46;90.96;100118.53;10413517;28;20038;-70
2022/10/31 01:09:44;;;;;;;2.40;1.17;;;;;;;12.02;90.10;100036.84;10435657;28;20044;-70
2022/10/31 01:14:45;;;;;;;2.92;1.15;;;;;;;12.00;90.30;100034.38;10437537;28;20168;-70
2022/10/31 01:19:46;;;;;;;2.38;1.30;;;;;;;11.91;89.76;100014.19;10431664;28;20065;-70
2022/10/31 01:24:47;;;;;;;3.03;1.38;;;;;;;12.46;90.21;100113.22;10412739;28;20118;-70
2022/10/31 01:29:47;;;;;;;3.03;1.40;;;;;;;12.10;90.40;100047.41;10448524;28;20048;-71
2022/10/31 01:34:49;;;;;;;2.47;1.20;;;;;;;12.40;90.75;100113.94;10454763;28;20056;-71
2022/10/31 01:39:49;;;;;;;2.75;1.40;;;;;;;12.36;90.89;100096.69;10461835;28;20404;-70
2022/10/31 01:45:01;;;;;;;4.95;1.73;;;;;;;12.03;91.44;100039.34;10423356;28;20048;-70
2022/10/31 01:50:09;;;;;;;2.85;1.35;;;;;;;12.26;91.18;100078.31;10420225;28;20045;-70
2022/10/31 01:55:18;;;;;;;4.88;1.50;;;;;;;12.39;91.91;100114.97;10419360;28;20414;-70
2022/10/31 02:00:21;;;;;;;2.67;1.45;;;;;;;12.26;91.23;100087.13;10419943;28;20045;-70
2022/10/31 02:05:26;;;;;;;6.05;2.00;;;;;;;12.29;91.10;100094.78;10419118;28;20048;-70
2022/10/31 02:10:27;;;;;;;3.25;1.67;;;;;;;12.36;91.17;100104.69;10434527;28;20041;-70
2022/10/31 02:15:29;;;;;;;4.30;2.08;;;;;;;12.12;92.11;100069.34;10419012;28;20441;-70
2022/10/31 02:20:52;;;;;;;3.67;2.03;;;;;;;12.29;95.10;100088.59;10418427;28;20040;-70
2022/10/31 02:26:37;;;;;;;4.60;2.17;;;;;;;12.25;95.76;100069.50;10417419;28;20045;-70
2022/10/31 02:31:56;;;;;;;3.65;1.90;;;;;;;12.18;96.28;100051.81;10409567;28;20110;-70
2022/10/31 02:37:13;;;;;;;3.50;1.65;;;;;;;12.19;94.59;100064.09;10418981;28;20095;-70
2022/10/31 02:42:13;;;;;;;3.92;1.75;;;;;;;12.21;93.39;100059.44;10419331;28;20069;-70
2022/10/31 02:47:18;;;;;;;2.72;1.60;;;;;;;12.20;93.00;100042.59;10457998;28;20143;-70
2022/10/31 02:52:26;;;;;;;3.47;1.52;;;;;;;12.25;93.36;100040.22;10458989;28;20088;-70
2022/10/31 02:57:33;;;;;;;3.42;1.83;;;;;;;12.19;92.38;100018.84;10457600;28;20033;-70
2022/10/31 03:03:11;;;;;;;2.83;1.48;;;;;;;12.32;92.86;100038.47;10458338;28;20480;-70
2022/10/31 03:08:50;;;;;;;4.43;1.45;;;;;;;12.36;90.33;100017.59;10456631;28;20079;-70
2022/10/31 03:14:09;;;;;;;2.90;1.58;;;;;;;11.92;90.17;99928.00;10457770;28;20037;-70
2022/10/31 03:19:23;;;;;;;3.15;1.75;;;;;;;12.26;90.53;99985.94;10457762;28;20107;-70
2022/10/31 03:24:30;;;;;;;4.07;1.63;;;;;;;12.33;91.13;100000.16;10457466;28;20051;-70
2022/10/31 03:29:34;;;;;;;2.95;1.77;;;;;;;12.38;90.91;100010.22;10458074;28;20087;-70
2022/10/31 03:34:37;;;;;;;;;;;;;;;12.48;90.49;100012.63;10458342;28;20053;-70
2022/10/31 03:39:41;;;;;;;13.05;2.47;;;;;;;12.28;91.88;100002.56;10456562;28;19982;-69
2022/10/31 03:44:51;;;;;;;3.35;1.88;;;;;;;12.23;92.68;99994.28;10449945;28;20098;-69
2022/10/31 03:49:52;;;;;;;11.68;2.30;;;;;;;12.19;93.03;99989.53;10420322;28;20048;-70
2022/10/31 03:54:59;;;;;;;9.73;2.30;;;;;;;12.18;94.36;99999.38;10449288;28;20044;-69
2022/10/31 04:00:14;;;;;;;10.80;2.35;;;;;;;12.17;97.60;99999.53;10414761;28;20052;-70
2022/10/31 04:05:17;;;;;;;13.55;3.00;;;;;;;11.85;95.79;99967.03;10416990;28;20049;-70
2022/10/31 04:10:19;;;;;;;12.40;2.60;;;;;;;11.40;96.95;99910.31;10442676;28;20041;-69
2022/10/31 04:15:22;;;;;;;7.05;2.25;;;;;;;11.90;97.79;100001.06;10407573;28;20061;-70
2022/10/31 04:20:33;;;;;;;9.60;2.78;;;;;;;11.97;100.00;99991.34;10418763;28;20374;-70
2022/10/31 04:25:34;;;;;;;14.38;2.83;;;;;;;11.96;98.68;99987.00;10440555;28;20037;-69
2022/10/31 04:30:35;;;;;;;5.95;2.40;;;;;;;11.83;99.46;99966.34;10424646;28;20720;-69
2022/10/31 04:35:35;;;;;;;8.20;2.55;;;;;;;11.98;99.82;99993.78;10425677;28;20037;-69
2022/10/31 04:40:36;;;;;;;8.43;2.65;;;;;;;12.00;100.00;99996.28;10454406;28;20060;-69
2022/10/31 04:45:37;;;;;;;12.77;2.85;;;;;;;12.07;100.00;100000.66;10453502;28;20037;-69
2022/10/31 04:50:38;;;;;;;5.60;3.10;;;;;;;11.98;100.00;99966.34;10454419;28;20071;-69
2022/10/31 04:55:39;;;;;;;6.80;2.83;;;;;;;12.08;100.00;99978.38;10453922;28;20045;-69
2022/10/31 05:00:40;;;;;;;4.10;2.13;;;;;;;12.06;100.00;99975.06;10453824;28;20064;-69
2022/10/31 05:05:41;;;;;;;10.95;3.25;;;;;;;11.93;100.00;99964.22;10453694;28;20049;-69
2022/10/31 05:10:42;;;;;;;13.00;3.85;;;;;;;12.08;100.00;99978.38;10456465;28;20036;-69
2022/10/31 05:15:43;;;;;;;15.95;4.32;;;;;;;11.96;100.00;99937.25;10462069;28;20041;-69
2022/10/31 05:20:43;;;;;;;8.88;3.85;;;;;;;12.09;100.00;99958.72;10461991;28;20496;-69
2022/10/31 05:25:44;;;;;;;13.98;5.35;;;;;;;12.10;100.00;99957.69;10462176;28;20033;-69
2022/10/31 05:30:45;;;;;;;7.93;4.10;;;;;;;12.26;100.00;99961.13;10462457;28;20056;-69
2022/10/31 05:35:46;;;;;;;6.00;2.47;;;;;;;12.29;100.00;99963.41;10462058;28;20420;-69
2022/10/31 05:40:46;;;;;;;8.15;2.25;;;;;;;12.36;100.00;99948.34;10461758;28;20044;-69
2022/10/31 05:45:47;;;;;;;6.57;1.90;;;;;;;12.43;100.00;99945.75;10461035;28;20045;-69
2022/10/31 05:50:48;;;;;;;12.20;2.72;;;;;;;12.48;100.00;99946.84;10461327;28;20037;-70
2022/10/31 05:55:49;;;;;;;4.03;1.90;;;;;;;11.96;100.00;99844.06;10461498;28;20047;-69
2022/10/31 06:00:50;;;;;;;4.72;2.25;;;;;;;12.37;99.91;99920.69;10460936;28;20573;-69
2022/10/31 06:05:51;;;;;;;7.03;2.38;;;;;;;12.47;100.00;99931.03;10460254;28;20421;-69
2022/10/31 06:10:53;;;;;;;5.97;2.47;;;;;;;12.46;100.00;99929.38;10460602;28;20123;-69
2022/10/31 06:15:54;;;;;;;4.13;2.17;;;;;;;12.49;100.00;99931.66;10460863;28;20511;-69
2022/10/31 06:20:55;;;;;;;7.45;2.25;;;;;;;12.53;100.00;99911.63;10459420;28;20124;-69
2022/10/31 06:25:55;;;;;;;6.00;2.55;;;;;;;12.32;100.00;99870.69;10459967;28;20416;-69
2022/10/31 06:30:56;;;;;;;4.75;2.83;;;;;;;12.12;100.00;99835.03;10459461;28;20068;-69
2022/10/31 06:35:57;;;;;;;7.03;3.08;;;;;;;12.63;100.00;99901.47;10459424;28;20041;-68
2022/10/31 06:41:01;;;;;;;16.50;3.33;;;;;;;12.74;100.00;99900.97;10459502;28;20519;-69
2022/10/31 06:46:04;;;;;;;5.93;3.70;;;;;;;12.81;100.00;99879.69;10459169;28;20040;-69
2022/10/31 06:51:05;;;;;;;5.70;3.45;;;;;;;13.11;100.00;99887.47;10458441;28;20167;-69
2022/10/31 06:56:06;;;;;;;7.38;3.97;;;;;;;13.20;100.00;99887.13;10458760;28;20615;-69
2022/10/31 07:01:07;;;;;;;9.65;4.13;;;;;;;13.21;100.00;99899.41;10458908;28;20044;-69
2022/10/31 07:06:07;;;;;;;6.63;4.03;;;;;;;13.24;99.98;99908.88;10457886;28;20037;-69
2022/10/31 07:11:08;;;;;;;17.15;4.63;;;;;;;12.97;100.00;99836.72;10458410;28;20166;-69
2022/10/31 07:16:13;;;;;;;10.07;4.60;;;;;;;13.41;100.00;99896.09;10457420;28;20040;-70
2022/10/31 07:21:14;;;;;;;9.40;5.88;;;;;;;13.43;99.95;99912.69;10457797;28;20044;-70
2022/10/31 07:26:15;;;;;;;10.30;6.70;;;;;;;13.11;100.00;99860.81;10457099;28;20425;-69
2022/10/31 07:31:16;;;;;;;13.77;7.88;;;;;;;12.98;100.00;99867.69;10457722;28;20139;-70
2022/10/31 07:36:16;;;;;;;11.35;7.55;;;;;;;13.41;100.00;99914.75;10456707;28;20472;-69
2022/10/31 07:41:17;;;;;;;17.65;7.75;;;;;;;12.89;100.00;99820.91;10457101;28;20513;-70
2022/10/31 07:46:18;;;;;;;15.73;8.77;;;;;;;13.36;100.00;99869.97;10456528;28;20421;-69
2022/10/31 07:51:19;;;;;;;12.65;8.30;;;;;;;13.42;100.00;99836.34;10456600;28;20048;-69
2022/10/31 07:56:19;;;;;;;11.80;8.20;;;;;;;13.46;100.00;99843.78;10471253;28;20186;-69
2022/10/31 08:01:20;;;;;;;21.75;8.77;;;;;;;13.44;100.00;99802.31;10456282;28;20045;-70
2022/10/31 08:06:21;;;;;;;12.70;7.82;;;;;;;12.88;100.00;99666.47;10456039;28;20052;-69
2022/10/31 08:11:22;;;;;;;12.20;8.10;;;;;;;13.84;100.00;99797.88;10455848;28;20045;-69
2022/10/31 08:16:22;;;;;;;14.20;7.97;;;;;;;13.94;100.00;99789.50;10455934;28;20041;-70
2022/10/31 08:21:23;;;;;;;17.83;7.80;;;;;;;14.01;100.00;99784.97;10454950;28;20068;-70
2022/10/31 08:26:24;;;;;;;10.73;7.30;;;;;;;14.09;100.00;99779.44;10455162;28;20052;-70
2022/10/31 08:31:27;;;;;;;12.43;7.90;;;;;;;14.15;100.00;99762.59;10437499;28;20152;-69
2022/10/31 08:36:28;;;;;;;12.07;7.70;;;;;;;13.86;100.00;99693.56;10436154;28;20072;-70
2022/10/31 08:41:30;;;;;;;12.18;8.02;;;;;;;14.25;100.00;99750.69;10413654;28;20131;-70
2022/10/31 08:46:31;;;;;;;12.02;7.10;;;;;;;14.32;100.00;99743.47;10431393;28;20513;-71
2022/10/31 08:51:32;;;;;;;15.90;7.65;;;;;;;14.33;99.32;99747.81;10429720;28;20150;-70
2022/10/31 08:56:33;;;;;;;11.10;7.40;;;;;;;13.94;98.46;99701.38;10448456;28;20178;-69
2022/10/31 09:01:33;;;;;;;14.10;7.22;;;;;;;14.38;98.57;99748.81;10453812;28;20116;-70
2022/10/31 09:06:34;;;;;;;11.60;7.45;;;;;;;14.54;97.82;99758.28;10453512;28;20036;-70
2022/10/31 09:11:35;;;;;;;13.65;7.95;;;;;;;14.70;96.91;99724.13;10454255;28;20153;-69
2022/10/31 09:16:36;;;;;;;17.80;8.20;;;;;;;14.53;95.66;99703.16;10453977;28;20045;-69
2022/10/31 09:21:36;;;;;;;11.77;7.85;;;;;;;14.86;94.47;99746.91;10453310;28;20061;-69
2022/10/31 09:26:37;;;;;;;12.05;7.88;;;;;;;14.58;93.95;99686.53;10453488;28;20041;-70
2022/10/31 09:31:38;;;;;;;9.73;7.45;;;;;;;15.13;93.67;99736.91;10469511;28;20064;-69
2022/10/31 09:36:39;;;;;;;16.48;8.00;;;;;;;15.11;93.97;99717.59;10439231;28;20120;-70
2022/10/31 09:42:00;;;;;;;13.23;7.75;;;;;;;15.33;92.81;99721.59;10431935;28;20048;-69
2022/10/31 09:47:22;;;;;;;11.18;7.07;;;;;;;15.53;90.59;99710.78;10411684;28;20058;-70
2022/10/31 09:52:30;;;;;;;14.65;7.03;;;;;;;15.41;89.24;99645.59;10412115;28;20119;-69
2022/10/31 09:57:35;;;;;;;12.60;6.43;;;;;;;15.42;85.93;99640.00;10414761;28;20045;-70
2022/10/31 10:02:53;;;;;;;10.00;6.53;;;;;;;15.71;84.06;99694.00;10419283;28;20044;-69
2022/10/31 10:08:09;;;;;;;12.43;5.97;;;;;;;15.12;85.68;99617.56;10419792;28;20048;-70
2022/10/31 10:13:24;;;;;;;35.45;7.75;;;;;;;15.49;86.01;99686.28;10418956;28;20069;-70
2022/10/31 10:18:43;;;;;;;9.45;6.90;;;;;;;15.31;85.19;99688.88;10418635;28;20065;-69
2022/10/31 10:24:10;;;;;;;11.48;7.28;;;;;;;15.16;84.88;99688.34;10419015;28;20037;-69
2022/10/31 10:30:03;;;;;;;20.38;7.00;;;;;;;15.22;87.95;99669.56;10418151;28;20096;-69
2022/10/31 10:35:42;;;;;;;10.90;7.07;;;;;;;15.37;86.01;99653.22;10356430;28;20044;-69
2022/10/31 10:40:44;;;;;;;13.77;6.20;;;;;;;15.32;85.84;99637.00;10380428;28;20053;-69
2022/10/31 10:51:22;;;;;;;8.55;6.20;;;;;;;15.35;81.97;99623.19;10428860;28;20041;-69
2022/10/31 10:56:41;;;;;;;7.75;5.00;;;;;;;15.33;82.15;99622.56;10447691;28;20558;-70
2022/10/31 11:01:42;;;;;;;10.63;5.40;;;;;;;15.40;82.57;99619.84;10417375;28;20077;-69
2022/10/31 11:06:42;;;;;;;14.48;5.53;;;;;;;15.36;81.35;99587.34;10416615;28;20067;-69
2022/10/31 11:11:43;;;;;;;10.25;4.88;;;;;;;15.55;80.58;99592.75;10416032;28;20048;-69
2022/10/31 11:16:53;;;;;;;7.15;3.97;;;;;;;15.60;77.79;99592.94;10416351;28;20158;-69
2022/10/31 11:21:54;;;;;;;8.35;2.80;;;;;;;15.50;79.25;99566.66;10414861;28;20052;-69
2022/10/31 11:27:16;;;;;;;8.85;2.20;;;;;;;15.19;75.09;99481.91;10416346;28;20043;-69
2022/10/31 11:32:23;;;;;;;3.63;1.70;;;;;;;15.69;75.20;99538.09;10415713;28;20057;-69
2022/10/31 11:37:30;;;;;;;7.03;2.05;;;;;;;15.75;75.58;99537.22;10415684;28;20049;-69
2022/10/31 11:42:42;;;;;;;2.40;1.38;;;;;;;15.09;73.68;99420.88;10416046;28;20048;-69
2022/10/31 11:47:47;;;;;;;6.25;1.60;;;;;;;15.84;73.36;99543.09;10414629;28;20120;-69
2022/10/31 11:52:49;;;;;;;6.97;2.03;;;;;;;15.75;73.96;99535.34;10415136;28;20048;-69
2022/10/31 11:57:53;;;;;;;2.97;1.60;;;;;;;15.69;74.09;99524.72;10414925;28;20049;-69
2022/10/31 12:03:19;;;;;;;3.90;1.83;;;;;;;15.70;74.49;99534.38;10415070;28;20038;-69
2022/10/31 12:08:20;;;;;;;4.38;2.83;;;;;;;15.41;74.99;99499.22;10413676;28;20497;-69
2022/10/31 12:13:51;;;;;;;6.43;3.28;;;;;;;15.65;74.79;99521.63;10413055;28;20045;-69
2022/10/31 12:19:29;;;;;;;7.50;3.45;;;;;;;15.62;74.91;99510.56;10414438;28;20033;-68
2022/10/31 12:24:51;;;;;;;7.38;2.60;;;;;;;15.45;75.96;99508.44;10437022;28;20083;-70
2022/10/31 12:30:13;;;;;;;6.45;2.58;;;;;;;15.46;75.01;99533.34;10450147;28;20563;-68
2022/10/31 12:35:29;;;;;;;4.30;2.30;;;;;;;15.55;73.41;99526.66;10450308;28;20155;-68
2022/10/31 12:40:46;;;;;;;4.30;2.00;;;;;;;15.44;72.74;99524.72;10470483;28;20107;-68
2022/10/31 12:46:00;;;;;;;5.88;2.45;;;;;;;15.45;73.61;99537.88;10455139;28;20591;-68
2022/10/31 12:51:12;;;;;;;12.98;2.72;;;;;;;15.40;74.20;99523.50;10443552;28;20478;-68
2022/10/31 12:56:34;;;;;;;8.63;2.63;;;;;;;15.37;73.77;99545.34;10413407;28;20112;-68
2022/10/31 13:01:44;;;;;;;8.82;2.80;;;;;;;14.74;73.36;99456.13;10412837;28;20506;-68
2022/10/31 13:06:57;;;;;;;8.32;2.92;;;;;;;15.11;74.52;99528.50;10412756;28;20559;-68
2022/10/31 13:12:08;;;;;;;12.50;3.90;;;;;;;15.04;75.26;99547.22;10412797;28;20132;-68
2022/10/31 13:17:57;;;;;;;33.05;20.83;;;;;;;14.94;77.01;99546.91;10412614;28;20426;-68
2022/10/31 13:23:26;;;;;;;29.40;13.57;;;;;;;14.73;82.48;99556.09;10393274;28;20053;-68
2022/10/31 13:28:44;;;;;;;12.00;4.93;;;;;;;14.50;82.89;99571.78;10413568;28;20048;-68
2022/10/31 13:33:51;;;;;;;15.88;5.00;;;;;;;14.26;84.84;99576.00;10433255;28;20491;-68
2022/10/31 13:39:23;;;;;;;2.10;1.30;;;;;;;14.14;86.09;99579.31;10420920;28;20041;-68
2022/10/31 13:44:25;;;;;;;9.27;1.60;;;;;;;13.93;84.71;99576.91;10419749;28;20041;-68
2022/10/31 13:49:38;;;;;;;2.88;1.40;;;;;;;13.77;89.59;99572.81;10420449;28;20116;-68
2022/10/31 13:54:48;;;;;;;2.38;1.00;;;;;;;13.67;87.93;99577.75;10431950;28;20052;-67
2022/10/31 13:59:53;;;;;;;5.97;1.42;;;;;;;13.48;88.38;99596.22;10420551;28;20511;-67
2022/10/31 14:05:19;;;;;;;4.70;1.88;;;;;;;12.95;92.03;99547.34;10419709;28;20516;-67
2022/10/31 14:10:36;;;;;;;6.47;2.10;;;;;;;13.19;94.67;99610.78;10419292;28;20045;-68
2022/10/31 14:15:40;;;;;;;8.60;3.30;;;;;;;12.64;93.16;99555.88;10418833;28;20053;-68
2022/10/31 14:20:43;;;;;;;5.53;3.60;;;;;;;12.91;93.90;99623.41;10418671;28;20421;-68
2022/10/31 14:25:44;;;;;;;7.90;4.18;;;;;;;12.79;94.73;99613.31;10444918;28;20045;-70
2022/10/31 14:30:53;;;;;;;7.65;4.10;;;;;;;12.34;96.08;99551.69;10459846;28;20067;-70
2022/10/31 14:36:10;;;;;;;7.43;3.30;;;;;;;12.55;94.64;99590.69;10458812;28;20095;-70
2022/10/31 14:41:47;;;;;;;5.68;4.05;;;;;;;12.74;94.02;99637.09;10458415;28;20037;-71
2022/10/31 14:47:09;;;;;;;8.82;3.92;;;;;;;12.64;94.56;99641.16;10452074;28;20053;-70
2022/10/31 14:52:14;;;;;;;7.82;3.35;;;;;;;12.51;93.90;99644.59;10446766;28;20071;-71
2022/10/31 14:57:28;;;;;;;8.10;3.47;;;;;;;11.96;94.35;99564.59;10456279;28;20040;-71
2022/10/31 15:02:38;;;;;;;7.78;3.67;;;;;;;12.39;93.45;99654.97;10454716;28;20603;-71
2022/10/31 15:08:26;;;;;;;6.07;3.17;;;;;;;12.38;96.88;99663.97;10456617;28;20131;-70
2022/10/31 15:13:27;;;;;;;6.68;3.47;;;;;;;11.75;94.54;99585.91;10427229;28;20137;-70
2022/10/31 15:18:29;;;;;;;10.68;4.20;;;;;;;12.12;96.08;99639.88;10417032;28;20596;-69
2022/10/31 15:23:31;;;;;;;6.95;3.47;;;;;;;12.21;97.32;99663.47;10416229;28;20045;-68
2022/10/31 15:28:32;;;;;;;9.45;3.97;;;;;;;11.65;98.53;99603.03;10416100;28;20033;-69
2022/10/31 15:33:41;;;;;;;10.07;3.80;;;;;;;12.17;100.00;99699.47;10416563;28;20053;-69
2022/10/31 15:38:41;;;;;;;10.07;3.90;;;;;;;12.07;100.00;99705.16;10425505;28;20049;-68
2022/10/31 15:43:45;;;;;;;10.18;3.80;;;;;;;11.92;100.00;99682.31;10412587;28;20044;-69
2022/10/31 15:48:47;;;;;;;9.32;3.80;;;;;;;11.08;100.00;99550.81;10424438;28;20074;-67
2022/10/31 15:53:51;;;;;;;9.02;3.85;;;;;;;11.45;100.00;99615.34;10436889;28;20092;-69
2022/10/31 15:58:54;;;;;;;11.80;3.40;;;;;;;11.89;100.00;99675.53;10434355;28;20038;-68
2022/10/31 16:04:13;;;;;;;6.45;3.47;;;;;;;11.99;100.00;99678.66;10422886;28;20056;-69
2022/10/31 16:09:23;;;;;;;7.35;3.22;;;;;;;11.99;100.00;99664.53;10432891;28;20072;-69
2022/10/31 16:14:31;;;;;;;17.48;3.75;;;;;;;11.31;100.00;99574.56;10424892;28;20124;-69
2022/10/31 16:19:36;;;;;;;6.65;3.47;;;;;;;11.92;100.00;99677.78;10431460;28;20084;-68
2022/10/31 16:24:46;;;;;;;10.70;3.13;;;;;;;11.74;100.00;99640.97;10437225;28;20115;-68
2022/10/31 16:29:47;;;;;;;10.70;3.38;;;;;;;11.71;100.00;99657.34;10418936;28;20045;-68
2022/10/31 16:34:58;;;;;;;5.10;3.20;;;;;;;11.73;100.00;99665.97;10415289;28;20562;-68
2022/10/31 16:39:59;;;;;;;6.68;3.05;;;;;;;11.65;100.00;99666.09;10414301;28;20045;-68
2022/10/31 16:45:00;;;;;;;9.90;3.42;;;;;;;11.10;100.00;99574.56;10413866;28;20489;-68
2022/10/31 16:50:00;;;;;;;8.55;2.83;;;;;;;11.50;100.00;99626.25;10413394;28;20053;-68
2022/10/31 16:55:01;;;;;;;10.25;3.38;;;;;;;11.14;100.00;99557.22;10413034;28;20046;-68
2022/10/31 17:00:03;;;;;;;11.38;3.00;;;;;;;11.50;100.00;99633.41;10413938;28;20102;-68
2022/10/31 17:05:05;;;;;;;7.90;3.35;;;;;;;11.54;100.00;99630.16;10411633;28;20080;-68
2022/10/31 17:10:07;;;;;;;9.60;3.28;;;;;;;10.94;100.00;99562.34;10422581;28;20033;-68
2022/10/31 17:15:16;;;;;;;13.45;3.45;;;;;;;11.20;100.00;99601.66;10427515;28;20045;-68
2022/10/31 17:20:21;;;;;;;7.68;3.10;;;;;;;11.31;100.00;99651.66;10431548;28;20041;-68
2022/10/31 17:25:24;;;;;;;6.20;2.92;;;;;;;11.20;100.00;99671.59;10434528;28;20033;-69
2022/10/31 17:30:26;;;;;;;4.88;2.30;;;;;;;11.16;100.00;99709.38;10417368;28;20508;-67
2022/10/31 17:35:27;;;;;;;4.53;2.20;;;;;;;11.04;100.00;99719.66;10418614;28;20048;-66
2022/10/31 17:40:28;;;;;;;5.10;2.13;;;;;;;10.88;100.00;99718.03;10409381;28;20041;-68
2022/10/31 17:45:29;;;;;;;4.32;1.92;;;;;;;10.81;100.00;99703.84;10408709;28;20041;-68
2022/10/31 17:50:30;;;;;;;5.47;2.20;;;;;;;10.76;100.00;99706.22;10424379;28;20042;-68
2022/10/31 17:55:31;;;;;;;7.88;2.00;;;;;;;10.61;100.00;99671.69;10408141;28;20042;-68
2022/10/31 18:00:32;;;;;;;4.60;1.48;;;;;;;10.52;100.00;99692.22;10408604;28;20052;-68
2022/10/31 18:05:33;;;;;;;8.65;1.63;;;;;;;10.48;98.68;99708.72;10409052;28;20049;-68
2022/10/31 18:10:37;;;;;;;3.58;1.20;;;;;;;10.30;96.87;99785.25;10408033;28;20071;-69
2022/10/31 18:15:40;;;;;;;3.78;1.10;;;;;;;9.78;96.94;99776.16;10407778;28;20041;-68
2022/10/31 18:20:43;;;;;;;3.40;1.03;;;;;;;9.57;97.64;99809.44;10414644;28;20076;-69
2022/10/31 18:25:44;;;;;;;3.35;1.10;;;;;;;8.68;97.93;99737.31;10430086;28;20521;-68
2022/10/31 18:30:44;;;;;;;0.75;0.30;;;;;;;8.62;96.59;99896.84;10414524;28;20061;-66
2022/10/31 18:35:45;;;;;;;6.50;0.40;;;;;;;7.72;96.30;99948.75;10415287;28;20049;-67
2022/10/31 18:40:46;;;;;;;0.68;0.20;;;;;;;7.31;94.96;99991.63;10425060;28;20486;-67
2022/10/31 18:45:47;;;;;;;0.25;0.10;;;;;;;7.00;96.05;100022.09;10413980;28;20047;-67
2022/10/31 18:50:48;;;;;;;1.98;0.17;;;;;;;6.75;95.27;100031.63;10439696;28;20049;-68
2022/10/31 18:55:49;;;;;;;4.22;0.30;;;;;;;6.71;94.65;100046.94;10422012;28;20045;-69
2022/10/31 19:00:50;;;;;;;0.60;0.20;;;;;;;6.63;94.24;100060.06;10436030;28;20044;-70
2022/10/31 19:05:55;;;;;;;0.82;0.22;;;;;;;6.31;93.70;100029.72;10414005;28;20053;-69
2022/10/31 19:11:03;;;;;;;0.55;0.20;;;;;;;6.44;93.40;100103.25;10413098;28;20042;-69
2022/10/31 19:16:09;;;;;;;5.05;0.50;;;;;;;5.84;92.95;100036.88;10413165;28;20076;-68
2022/10/31 19:21:13;;;;;;;1.45;0.10;;;;;;;6.26;93.21;100142.75;10412843;28;20068;-69
2022/10/31 19:26:14;;;;;;;1.42;0.60;;;;;;;6.24;93.78;100123.59;10413205;28;20068;-68
2022/10/31 19:31:14;;;;;;;0.75;0.30;;;;;;;6.26;94.08;100129.56;10411965;28;20065;-68
2022/10/31 19:36:17;;;;;;;1.17;0.13;;;;;;;6.11;93.18;100138.94;10412127;28;20037;-69
2022/10/31 19:41:21;;;;;;;0.90;0.25;;;;;;;5.51;93.32;100083.84;10412964;28;20461;-68
2022/10/31 19:46:23;;;;;;;1.83;0.70;;;;;;;5.86;93.32;100164.94;10412621;28;20505;-68
2022/10/31 19:51:24;;;;;;;1.38;0.40;;;;;;;5.98;93.43;100193.78;10426984;28;20047;-69
2022/10/31 19:56:24;;;;;;;0.52;0.28;;;;;;;5.57;93.49;100138.63;10414324;28;20052;-69
2022/10/31 20:01:25;;;;;;;0.63;0.30;;;;;;;5.34;93.29;100106.47;10434108;28;20463;-68
2022/10/31 20:06:32;;;;;;;2.85;0.40;;;;;;;5.98;93.18;100228.88;10411473;28;20069;-69
2022/10/31 20:11:35;;;;;;;0.70;0.20;;;;;;;5.90;93.08;100241.94;10410960;28;20525;-69
2022/10/31 20:16:37;;;;;;;1.30;0.33;;;;;;;5.69;92.07;100215.72;10411245;28;20079;-69
2022/10/31 20:21:39;;;;;;;2.00;0.77;;;;;;;5.75;91.64;100222.25;10410409;28;20088;-69
2022/10/31 20:26:41;;;;;;;0.60;0.30;;;;;;;5.42;90.94;100198.81;10425720;28;20041;-69
2022/10/31 20:31:43;;;;;;;1.30;0.47;;;;;;;5.46;90.68;100223.06;10414049;28;20091;-69
2022/10/31 20:36:44;;;;;;;3.47;0.57;;;;;;;5.63;90.63;100230.28;10413846;28;20045;-69
2022/10/31 20:41:45;;;;;;;1.08;0.40;;;;;;;5.75;90.57;100251.22;10416273;28;20033;-69
2022/10/31 20:46:46;;;;;;;3.97;1.58;;;;;;;5.12;89.93;100162.06;10421165;28;20342;-69
2022/10/31 20:51:47;;;;;;;1.38;0.40;;;;;;;5.59;90.24;100260.50;10413571;28;20039;-69
2022/10/31 20:56:48;;;;;;;1.23;0.30;;;;;;;4.94;89.46;100162.72;10413843;28;20557;-69
2022/10/31 21:01:49;;;;;;;1.00;0.38;;;;;;;5.48;89.68;100272.00;10412868;28;20521;-70
2022/10/31 21:06:49;;;;;;;2.10;0.52;;;;;;;5.56;89.03;100271.31;10413805;28;20034;-70
2022/10/31 21:11:50;;;;;;;0.60;0.25;;;;;;;5.08;89.78;100176.44;10412426;28;20057;-69
2022/10/31 21:16:51;;;;;;;0.82;0.38;;;;;;;5.46;89.70;100260.78;10413260;28;20072;-69
2022/10/31 21:21:52;;;;;;;1.17;0.40;;;;;;;5.02;89.53;100185.72;10412392;28;20045;-69
2022/10/31 21:26:53;;;;;;;0.55;0.30;;;;;;;5.52;89.76;100271.75;10413279;28;20041;-69
2022/10/31 21:31:54;;;;;;;1.35;0.40;;;;;;;5.50;89.89;100292.94;10412990;28;20072;-70
2022/10/31 21:36:55;;;;;;;1.30;0.57;;;;;;;5.08;90.10;100221.19;10412447;28;20044;-69
2022/10/31 21:41:55;;;;;;;4.97;0.50;;;;;;;5.32;89.76;100244.53;10411986;28;20042;-70
2022/10/31 21:46:56;;;;;;;3.50;0.50;;;;;;;5.08;89.80;100202.78;10412510;28;20039;-69
2022/10/31 21:51:57;;;;;;;1.33;0.30;;;;;;;5.58;90.07;100298.38;10412334;28;20076;-70
2022/10/31 21:57:00;;;;;;;2.30;0.40;;;;;;;5.58;89.18;100311.53;10419565;28;20386;-70
2022/10/31 22:02:01;;;;;;;1.15;0.43;;;;;;;5.65;89.38;100317.97;10420642;28;20551;-69
2022/10/31 22:07:02;;;;;;;1.45;0.50;;;;;;;5.06;90.32;100199.47;10431125;28;20091;-69
2022/10/31 22:12:05;;;;;;;1.20;0.50;;;;;;;5.43;90.01;100234.69;10419747;28;20409;-70
2022/10/31 22:17:06;;;;;;;1.25;0.45;;;;;;;5.97;90.60;100305.50;10419429;28;20049;-69
2022/10/31 22:22:07;;;;;;;4.82;0.40;;;;;;;5.33;90.37;100198.81;10419934;28;20068;-69
2022/10/31 22:27:08;;;;;;;1.73;0.45;;;;;;;6.02;90.63;100313.84;10418950;28;20065;-69
2022/10/31 22:32:09;;;;;;;1.52;0.43;;;;;;;5.66;89.98;100277.44;10418783;28;20061;-70
2022/10/31 22:37:09;;;;;;;1.15;0.43;;;;;;;5.71;89.35;100306.00;10419335;28;20060;-69
2022/10/31 22:42:10;;;;;;;2.30;0.60;;;;;;;5.79;89.39;100324.59;10418215;28;20049;-70
2022/10/31 22:47:11;;;;;;;1.98;0.75;;;;;;;5.67;88.70;100318.63;10419203;28;20087;-69
2022/10/31 22:52:12;;;;;;;1.63;0.60;;;;;;;5.73;88.52;100331.25;10418961;28;20521;-69
2022/10/31 22:57:12;;;;;;;1.48;0.60;;;;;;;5.68;88.58;100322.94;10433596;28;20469;-69
2022/10/31 23:02:13;;;;;;;2.97;0.95;;;;;;;5.66;88.52;100335.44;10417234;28;20049;-69
2022/10/31 23:07:14;;;;;;;2.40;0.93;;;;;;;4.66;88.26;100176.63;10417407;28;20044;-69
2022/10/31 23:17:34;;;;;;;2.60;1.40;;;;;;;5.54;88.37;100327.78;10417731;28;20037;-69
2022/10/31 23:22:35;;;;;;;3.03;1.30;;;;;;;5.60;88.90;100349.16;10416856;28;20048;-68
2022/10/31 23:27:36;;;;;;;1.83;1.10;;;;;;;5.49;88.43;100357.16;10416748;28;20037;-68
2022/10/31 23:32:37;;;;;;;4.13;1.30;;;;;;;5.29;88.11;100345.72;10416697;28;20057;-69
2022/10/31 23:37:38;;;;;;;2.25;0.85;;;;;;;4.82;87.76;100271.72;10416363;28;20042;-69
2022/10/31 23:42:38;;;;;;;3.38;0.80;;;;;;;5.15;85.96;100368.00;10416250;28;20042;-69